sensor_id;sensor_type;location;lat;lon;timestamp;temperature;humidity
20345;DHT22;10330;48.816;9.278;2023-07-20T15:13:07;30.10;89.10
20345;DHT22;10330;48.816;9.278;2023-07-20T15:15:33;32.50;59.40
20345;DHT22;10330;48.816;9.278;2023-07-20T15:17:59;32.60;59.10
20345;DHT22;10330;48.816;9.278;2023-07-20T15:20:25;32.20;58.70
20345;DHT22;10330;48.816;9.278;2023-07-20T15:22:52;32.40;59.20
20345;DHT22;10330;48.816;9.278;2023-07-20T15:25:18;32.20;58.80
20345;DHT22;10330;48.816;9.278;2023-07-20T15:27:45;31.80;58.50
20345;DHT22;10330;48.816;9.278;2023-07-20T15:30:11;31.20;58.50
20345;DHT22;10330;48.816;9.278;2023-07-20T15:32:38;31.10;59.60
20345;DHT22;10330;48.816;9.278;2023-07-20T15:35:06;31.30;60.60
20345;DHT22;10330;48.816;9.278;2023-07-20T15:37:35;31.70;58.80
20345;DHT22;10330;48.816;9.278;2023-07-20T15:40:03;31.60;61.80
20345;DHT22;10330;48.816;9.278;2023-07-20T15:42:32;31.80;60.60
20345;DHT22;10330;48.816;9.278;2023-07-20T15:44:58;32.00;58.50
20345;DHT22;10330;48.816;9.278;2023-07-20T15:47:24;32.10;57.60
20345;DHT22;10330;48.816;9.278;2023-07-20T15:49:51;32.20;58.10
20345;DHT22;10330;48.816;9.278;2023-07-20T15:52:20;31.60;57.70
20345;DHT22;10330;48.816;9.278;2023-07-20T15:54:46;30.60;59.00
20345;DHT22;10330;48.816;9.278;2023-07-20T15:57:13;31.00;64.20
20345;DHT22;10330;48.816;9.278;2023-07-20T15:59:39;31.80;59.50
20345;DHT22;10330;48.816;9.278;2023-07-20T16:02:06;31.90;57.80
20345;DHT22;10330;48.816;9.278;2023-07-20T16:04:33;31.80;59.20
20345;DHT22;10330;48.816;9.278;2023-07-20T16:06:59;31.50;62.50
20345;DHT22;10330;48.816;9.278;2023-07-20T16:09:27;31.30;60.20
20345;DHT22;10330;48.816;9.278;2023-07-20T16:11:54;31.20;61.30
20345;DHT22;10330;48.816;9.278;2023-07-20T16:14:20;31.20;58.80
20345;DHT22;10330;48.816;9.278;2023-07-20T16:16:47;31.20;60.60
20345;DHT22;10330;48.816;9.278;2023-07-20T16:19:13;31.00;61.20
20345;DHT22;10330;48.816;9.278;2023-07-20T16:21:42;30.80;62.30
20345;DHT22;10330;48.816;9.278;2023-07-20T16:24:11;30.40;64.70
20345;DHT22;10330;48.816;9.278;2023-07-20T16:26:38;30.10;64.90
20345;DHT22;10330;48.816;9.278;2023-07-20T16:29:10;29.70;61.20
20345;DHT22;10330;48.816;9.278;2023-07-20T16:31:39;29.80;62.00
20345;DHT22;10330;48.816;9.278;2023-07-20T16:34:06;29.70;60.90
20345;DHT22;10330;48.816;9.278;2023-07-20T16:36:32;29.40;60.90
20345;DHT22;10330;48.816;9.278;2023-07-20T16:39:00;29.10;61.80
20345;DHT22;10330;48.816;9.278;2023-07-20T16:41:27;28.90;61.70
20345;DHT22;10330;48.816;9.278;2023-07-20T16:43:53;28.90;62.60
20345;DHT22;10330;48.816;9.278;2023-07-20T16:46:26;29.00;62.60
20345;DHT22;10330;48.816;9.278;2023-07-20T16:48:52;29.00;62.80
20345;DHT22;10330;48.816;9.278;2023-07-20T16:51:18;29.00;63.80
20345;DHT22;10330;48.816;9.278;2023-07-20T16:53:44;29.00;63.60
20345;DHT22;10330;48.816;9.278;2023-07-20T16:56:11;29.00;63.90
20345;DHT22;10330;48.816;9.278;2023-07-20T16:58:37;28.70;61.90
20345;DHT22;10330;48.816;9.278;2023-07-20T17:01:04;28.30;62.20
20345;DHT22;10330;48.816;9.278;2023-07-20T17:03:31;28.20;64.00
20345;DHT22;10330;48.816;9.278;2023-07-20T17:05:57;28.20;64.10
20345;DHT22;10330;48.816;9.278;2023-07-20T17:08:24;28.20;63.70
20345;DHT22;10330;48.816;9.278;2023-07-20T17:10:53;28.20;63.30
20345;DHT22;10330;48.816;9.278;2023-07-20T17:13:20;27.90;63.40
20345;DHT22;10330;48.816;9.278;2023-07-20T17:15:47;27.90;63.70
20345;DHT22;10330;48.816;9.278;2023-07-20T17:18:15;27.90;63.30
20345;DHT22;10330;48.816;9.278;2023-07-20T17:20:43;27.90;63.60
20345;DHT22;10330;48.816;9.278;2023-07-20T17:23:12;27.80;64.50
20345;DHT22;10330;48.816;9.278;2023-07-20T17:26:11;27.80;64.60
20345;DHT22;10330;48.816;9.278;2023-07-20T17:28:45;27.70;64.50
20345;DHT22;10330;48.816;9.278;2023-07-20T17:31:23;27.50;65.20
20345;DHT22;10330;48.816;9.278;2023-07-20T17:34:19;27.20;64.70
20345;DHT22;10330;48.816;9.278;2023-07-20T17:36:48;27.00;65.50
20345;DHT22;10330;48.816;9.278;2023-07-20T17:42:56;26.70;66.20
20345;DHT22;10330;48.816;9.278;2023-07-20T17:45:22;26.40;66.70
20345;DHT22;10330;48.816;9.278;2023-07-20T17:47:49;26.30;66.50
20345;DHT22;10330;48.816;9.278;2023-07-20T17:50:15;26.20;66.50
20345;DHT22;10330;48.816;9.278;2023-07-20T17:52:42;26.10;66.90
20345;DHT22;10330;48.816;9.278;2023-07-20T17:55:11;26.00;68.30
20345;DHT22;10330;48.816;9.278;2023-07-20T17:57:37;26.10;68.70
20345;DHT22;10330;48.816;9.278;2023-07-20T18:00:04;25.90;69.40
20345;DHT22;10330;48.816;9.278;2023-07-20T18:02:36;25.80;68.40
20345;DHT22;10330;48.816;9.278;2023-07-20T18:05:03;25.80;68.80
20345;DHT22;10330;48.816;9.278;2023-07-20T18:07:31;25.70;69.50
20345;DHT22;10330;48.816;9.278;2023-07-20T18:09:57;25.60;69.00
20345;DHT22;10330;48.816;9.278;2023-07-20T18:12:24;25.70;69.30
20345;DHT22;10330;48.816;9.278;2023-07-20T18:14:50;25.60;68.70
20345;DHT22;10330;48.816;9.278;2023-07-20T18:17:19;25.40;68.00
20345;DHT22;10330;48.816;9.278;2023-07-20T18:19:45;25.20;68.60
20345;DHT22;10330;48.816;9.278;2023-07-20T18:22:12;25.00;68.80
20345;DHT22;10330;48.816;9.278;2023-07-20T18:24:40;25.00;68.70
20345;DHT22;10330;48.816;9.278;2023-07-20T18:27:06;25.00;69.10
20345;DHT22;10330;48.816;9.278;2023-07-20T18:29:32;24.90;70.00
20345;DHT22;10330;48.816;9.278;2023-07-20T18:31:59;24.80;69.60
20345;DHT22;10330;48.816;9.278;2023-07-20T18:34:26;24.80;69.50
20345;DHT22;10330;48.816;9.278;2023-07-20T18:36:52;24.80;70.60
20345;DHT22;10330;48.816;9.278;2023-07-20T18:39:18;24.80;71.00
20345;DHT22;10330;48.816;9.278;2023-07-20T18:41:44;24.80;70.70
20345;DHT22;10330;48.816;9.278;2023-07-20T18:44:10;24.70;71.40
20345;DHT22;10330;48.816;9.278;2023-07-20T18:46:37;24.60;71.20
20345;DHT22;10330;48.816;9.278;2023-07-20T18:49:03;24.60;71.60
20345;DHT22;10330;48.816;9.278;2023-07-20T18:51:29;24.50;71.20
20345;DHT22;10330;48.816;9.278;2023-07-20T18:53:55;24.40;71.20
20345;DHT22;10330;48.816;9.278;2023-07-20T18:56:21;24.40;71.90
20345;DHT22;10330;48.816;9.278;2023-07-20T18:58:48;24.30;72.20
20345;DHT22;10330;48.816;9.278;2023-07-20T19:01:14;24.30;73.60
20345;DHT22;10330;48.816;9.278;2023-07-20T19:03:42;24.30;72.50
20345;DHT22;10330;48.816;9.278;2023-07-20T19:06:12;24.30;73.60
20345;DHT22;10330;48.816;9.278;2023-07-20T19:08:40;24.30;73.10
20345;DHT22;10330;48.816;9.278;2023-07-20T19:11:09;24.20;73.90
20345;DHT22;10330;48.816;9.278;2023-07-20T19:13:39;24.20;73.00
20345;DHT22;10330;48.816;9.278;2023-07-20T19:16:05;24.10;72.60
20345;DHT22;10330;48.816;9.278;2023-07-20T19:18:33;24.10;74.00
20345;DHT22;10330;48.816;9.278;2023-07-20T19:21:04;24.00;74.00
20345;DHT22;10330;48.816;9.278;2023-07-20T19:23:30;24.00;74.50
20345;DHT22;10330;48.816;9.278;2023-07-20T19:26:08;23.90;73.90
20345;DHT22;10330;48.816;9.278;2023-07-20T19:28:36;24.00;75.20
20345;DHT22;10330;48.816;9.278;2023-07-20T19:31:03;23.90;75.20
20345;DHT22;10330;48.816;9.278;2023-07-20T19:33:30;23.90;75.20
20345;DHT22;10330;48.816;9.278;2023-07-20T19:35:56;23.90;76.10
20345;DHT22;10330;48.816;9.278;2023-07-20T19:38:23;23.90;75.60
20345;DHT22;10330;48.816;9.278;2023-07-20T19:40:54;23.90;76.90
20345;DHT22;10330;48.816;9.278;2023-07-20T19:43:21;23.80;77.00
20345;DHT22;10330;48.816;9.278;2023-07-20T19:45:50;23.70;76.60
20345;DHT22;10330;48.816;9.278;2023-07-20T19:48:19;23.70;78.00
20345;DHT22;10330;48.816;9.278;2023-07-20T19:50:46;23.70;78.00
20345;DHT22;10330;48.816;9.278;2023-07-20T19:53:14;23.70;79.00
20345;DHT22;10330;48.816;9.278;2023-07-20T19:55:43;23.60;77.70
20345;DHT22;10330;48.816;9.278;2023-07-20T19:58:10;23.60;77.90
20345;DHT22;10330;48.816;9.278;2023-07-20T20:00:41;23.60;77.60
20345;DHT22;10330;48.816;9.278;2023-07-20T20:03:11;23.60;78.90
20345;DHT22;10330;48.816;9.278;2023-07-20T20:05:39;23.50;79.00
20345;DHT22;10330;48.816;9.278;2023-07-20T20:08:06;23.50;80.60
20345;DHT22;10330;48.816;9.278;2023-07-20T20:10:33;23.50;80.60
20345;DHT22;10330;48.816;9.278;2023-07-20T20:13:03;23.40;81.50
20345;DHT22;10330;48.816;9.278;2023-07-20T20:15:30;23.40;80.80
20345;DHT22;10330;48.816;9.278;2023-07-20T20:17:57;23.30;81.80
20345;DHT22;10330;48.816;9.278;2023-07-20T20:20:32;23.20;82.70
20345;DHT22;10330;48.816;9.278;2023-07-20T20:22:59;23.10;83.90
20345;DHT22;10330;48.816;9.278;2023-07-20T20:25:26;23.00;84.20
20345;DHT22;10330;48.816;9.278;2023-07-20T20:27:53;22.90;85.40
20345;DHT22;10330;48.816;9.278;2023-07-20T20:30:19;22.90;85.10
20345;DHT22;10330;48.816;9.278;2023-07-20T20:32:47;22.90;86.20
20345;DHT22;10330;48.816;9.278;2023-07-20T20:35:13;22.90;86.70
20345;DHT22;10330;48.816;9.278;2023-07-20T20:37:40;22.80;87.10
20345;DHT22;10330;48.816;9.278;2023-07-20T20:40:07;22.80;88.70
20345;DHT22;10330;48.816;9.278;2023-07-20T20:42:34;22.80;89.00
20345;DHT22;10330;48.816;9.278;2023-07-20T20:45:00;22.80;88.80
20345;DHT22;10330;48.816;9.278;2023-07-20T20:47:26;22.70;89.30
20345;DHT22;10330;48.816;9.278;2023-07-20T20:49:52;22.50;89.50
20345;DHT22;10330;48.816;9.278;2023-07-20T20:52:19;22.40;90.90
20345;DHT22;10330;48.816;9.278;2023-07-20T20:54:45;22.30;91.80
20345;DHT22;10330;48.816;9.278;2023-07-20T20:57:14;22.20;92.30
20345;DHT22;10330;48.816;9.278;2023-07-20T20:59:40;22.10;92.10
20345;DHT22;10330;48.816;9.278;2023-07-20T21:02:13;22.10;92.30
20345;DHT22;10330;48.816;9.278;2023-07-20T21:04:45;22.00;91.90
20345;DHT22;10330;48.816;9.278;2023-07-20T21:07:12;22.00;93.10
20345;DHT22;10330;48.816;9.278;2023-07-20T21:09:40;22.00;93.30
20345;DHT22;10330;48.816;9.278;2023-07-20T21:12:06;21.90;93.70
20345;DHT22;10330;48.816;9.278;2023-07-20T21:14:33;21.90;94.10
20345;DHT22;10330;48.816;9.278;2023-07-20T21:16:59;21.80;94.30
20345;DHT22;10330;48.816;9.278;2023-07-20T21:19:26;21.80;95.50
20345;DHT22;10330;48.816;9.278;2023-07-20T21:21:52;21.70;95.70
20345;DHT22;10330;48.816;9.278;2023-07-20T21:24:18;21.70;95.50
20345;DHT22;10330;48.816;9.278;2023-07-20T21:26:45;21.70;95.90
20345;DHT22;10330;48.816;9.278;2023-07-20T21:29:11;21.60;96.40
20345;DHT22;10330;48.816;9.278;2023-07-20T21:31:37;21.60;96.90
20345;DHT22;10330;48.816;9.278;2023-07-20T21:34:04;21.50;97.80
20345;DHT22;10330;48.816;9.278;2023-07-20T21:36:30;21.40;98.20
20345;DHT22;10330;48.816;9.278;2023-07-20T21:38:56;21.40;99.20
20345;DHT22;10330;48.816;9.278;2023-07-20T21:41:23;21.40;99.90
20345;DHT22;10330;48.816;9.278;2023-07-20T21:43:49;21.30;99.90
20345;DHT22;10330;48.816;9.278;2023-07-20T21:46:16;21.30;99.90
20345;DHT22;10330;48.816;9.278;2023-07-20T21:48:42;21.20;99.90
20345;DHT22;10330;48.816;9.278;2023-07-20T21:51:08;21.20;99.90
20345;DHT22;10330;48.816;9.278;2023-07-20T21:53:35;21.10;99.90
20345;DHT22;10330;48.816;9.278;2023-07-20T21:56:01;21.00;99.90
20345;DHT22;10330;48.816;9.278;2023-07-20T21:58:27;21.00;99.90
20345;DHT22;10330;48.816;9.278;2023-07-20T22:00:54;20.90;99.90
20345;DHT22;10330;48.816;9.278;2023-07-20T22:03:22;20.80;99.90
20345;DHT22;10330;48.816;9.278;2023-07-20T22:06:19;20.70;99.90
20345;DHT22;10330;48.816;9.278;2023-07-20T22:09:01;20.60;99.90
20345;DHT22;10330;48.816;9.278;2023-07-20T22:11:27;20.50;99.90
20345;DHT22;10330;48.816;9.278;2023-07-20T22:13:53;20.40;99.90
20345;DHT22;10330;48.816;9.278;2023-07-20T22:16:28;20.40;99.90
20345;DHT22;10330;48.816;9.278;2023-07-20T22:19:06;20.50;99.90
20345;DHT22;10330;48.816;9.278;2023-07-20T22:21:37;20.50;99.90
20345;DHT22;10330;48.816;9.278;2023-07-20T22:24:14;20.50;99.90
20345;DHT22;10330;48.816;9.278;2023-07-20T22:26:45;20.40;99.90
20345;DHT22;10330;48.816;9.278;2023-07-20T22:29:11;20.40;99.90
20345;DHT22;10330;48.816;9.278;2023-07-20T22:31:37;20.30;99.90
20345;DHT22;10330;48.816;9.278;2023-07-20T22:34:04;20.30;99.90
20345;DHT22;10330;48.816;9.278;2023-07-20T22:36:30;20.30;99.90
20345;DHT22;10330;48.816;9.278;2023-07-20T22:38:56;20.30;99.90
20345;DHT22;10330;48.816;9.278;2023-07-20T22:41:22;20.30;99.90
20345;DHT22;10330;48.816;9.278;2023-07-20T22:43:48;20.30;99.90
20345;DHT22;10330;48.816;9.278;2023-07-20T22:46:15;20.10;99.90
20345;DHT22;10330;48.816;9.278;2023-07-20T22:48:43;20.10;99.90
20345;DHT22;10330;48.816;9.278;2023-07-20T22:51:10;20.10;99.90
20345;DHT22;10330;48.816;9.278;2023-07-20T22:53:36;20.00;99.90
20345;DHT22;10330;48.816;9.278;2023-07-20T22:56:04;20.00;99.90
20345;DHT22;10330;48.816;9.278;2023-07-20T22:58:30;20.00;99.90
20345;DHT22;10330;48.816;9.278;2023-07-20T23:00:56;19.90;99.90
20345;DHT22;10330;48.816;9.278;2023-07-20T23:03:23;19.90;99.90
20345;DHT22;10330;48.816;9.278;2023-07-20T23:05:49;19.90;99.90
20345;DHT22;10330;48.816;9.278;2023-07-20T23:08:16;19.80;99.90
20345;DHT22;10330;48.816;9.278;2023-07-20T23:10:42;19.90;99.90
20345;DHT22;10330;48.816;9.278;2023-07-20T23:13:08;19.80;99.90
20345;DHT22;10330;48.816;9.278;2023-07-20T23:15:35;19.80;99.90
20345;DHT22;10330;48.816;9.278;2023-07-20T23:18:02;19.70;99.90
20345;DHT22;10330;48.816;9.278;2023-07-20T23:20:31;19.60;99.90
20345;DHT22;10330;48.816;9.278;2023-07-20T23:22:57;19.60;99.90
20345;DHT22;10330;48.816;9.278;2023-07-20T23:25:23;19.50;99.90
20345;DHT22;10330;48.816;9.278;2023-07-20T23:27:50;19.50;99.90
20345;DHT22;10330;48.816;9.278;2023-07-20T23:30:17;19.40;99.90
20345;DHT22;10330;48.816;9.278;2023-07-20T23:32:44;19.40;99.90
20345;DHT22;10330;48.816;9.278;2023-07-20T23:35:10;19.40;99.90
20345;DHT22;10330;48.816;9.278;2023-07-20T23:37:38;19.30;99.90
20345;DHT22;10330;48.816;9.278;2023-07-20T23:40:05;19.20;99.90
20345;DHT22;10330;48.816;9.278;2023-07-20T23:42:38;19.20;99.90
20345;DHT22;10330;48.816;9.278;2023-07-20T23:45:05;19.10;99.90
20345;DHT22;10330;48.816;9.278;2023-07-20T23:47:31;19.10;99.90
20345;DHT22;10330;48.816;9.278;2023-07-20T23:49:58;19.10;99.90
20345;DHT22;10330;48.816;9.278;2023-07-20T23:52:24;19.10;99.90
20345;DHT22;10330;48.816;9.278;2023-07-20T23:54:53;18.90;99.90
20345;DHT22;10330;48.816;9.278;2023-07-20T23:57:19;18.90;99.90
20345;DHT22;10330;48.816;9.278;2023-07-20T23:59:46;18.90;99.90
